Time;durP1;ratioP1;P1;durP2;ratioP2;P2;SDS_P1;SDS_P2;PMS_P1;PMS_P2;Temp;Humidity;BMP_temperature;BMP_pressure;BME280_temperature;BME280_humidity;BME280_pressure;Samples;Min_cycle;Max_cycle;Signal;HPM_P1;HPM_P2
2022/01/10 00:02:13;;;;;;;23.08;12.90;;;;;;;1.52;89.68;96378.25;10398898;28;20128;-58
2022/01/10 00:07:12;;;;;;;18.02;9.55;;;;;;;1.49;89.59;96360.31;10414935;28;20024;-58
2022/01/10 00:12:11;;;;;;;15.82;9.20;;;;;;;1.65;89.18;96381.81;10410850;28;20111;-59
2022/01/10 00:17:10;;;;;;;14.80;7.93;;;;;;;1.42;89.32;96351.72;10398204;28;20051;-58
2022/01/10 00:22:09;;;;;;;20.08;11.85;;;;;;;1.70;89.42;96375.91;10414533;28;20108;-58
2022/01/10 00:27:08;;;;;;;20.17;10.13;;;;;;;1.79;89.41;96379.41;10391405;28;20116;-58
2022/01/10 00:32:07;;;;;;;17.55;8.75;;;;;;;1.86;89.20;96374.38;10413648;28;20045;-59
2022/01/10 00:37:06;;;;;;;19.67;9.57;;;;;;;2.01;89.33;96381.34;10413895;28;20116;-58
2022/01/10 00:42:05;;;;;;;20.77;9.43;;;;;;;2.06;89.15;96382.25;10408818;28;20036;-59
2022/01/10 00:47:04;;;;;;;20.33;10.75;;;;;;;2.13;89.31;96373.78;10412941;28;20036;-58
2022/01/10 00:52:04;;;;;;;19.85;9.30;;;;;;;2.25;89.08;96373.03;10412265;28;20465;-58
2022/01/10 00:57:05;;;;;;;18.67;10.23;;;;;;;2.32;88.95;96376.53;10396740;28;20062;-59
2022/01/10 01:02:04;;;;;;;23.27;9.60;;;;;;;2.42;88.42;96382.56;10413177;28;20131;-58
2022/01/10 01:07:03;;;;;;;17.73;8.90;;;;;;;2.23;88.31;96358.53;10413961;28;20770;-59
2022/01/10 01:17:14;;;;;;;18.30;8.93;;;;;;;2.38;88.26;96371.47;10407568;28;20471;-59
2022/01/10 01:27:30;;;;;;;21.67;11.07;;;;;;;2.58;88.09;96380.19;10408953;28;20064;-59
2022/01/10 01:32:29;;;;;;;18.88;10.68;;;;;;;2.64;87.60;96370.81;10414224;28;20128;-59
2022/01/10 01:37:28;;;;;;;20.98;10.20;;;;;;;2.62;88.14;96364.81;10414578;28;20057;-59
2022/01/10 01:47:28;;;;;;;20.10;10.50;;;;;;;2.57;88.06;96365.66;10412408;28;20119;-58
2022/01/10 01:52:28;;;;;;;36.60;19.23;;;;;;;2.55;87.55;96348.56;10412410;28;20059;-59
2022/01/10 01:57:28;;;;;;;20.30;12.55;;;;;;;2.55;87.36;96351.97;10413873;28;20135;-59
2022/01/10 02:02:27;;;;;;;17.08;8.93;;;;;;;2.44;87.88;96352.72;10409072;28;20116;-59
2022/01/10 02:07:26;;;;;;;27.38;16.48;;;;;;;2.33;87.64;96368.00;10413189;28;20032;-59
2022/01/10 02:12:25;;;;;;;20.58;11.85;;;;;;;2.28;87.63;96356.88;10409313;28;20016;-59
2022/01/10 02:17:33;;;;;;;17.88;10.15;;;;;;;2.34;87.47;96356.91;10412778;28;20020;-59
2022/01/10 02:22:33;;;;;;;18.38;8.82;;;;;;;2.30;87.15;96361.16;10407334;28;20112;-59
2022/01/10 02:27:32;;;;;;;;;;;;;;;2.32;87.29;96364.56;10413362;28;20854;-59
2022/01/10 02:32:34;;;;;;;20.52;11.18;;;;;;;2.24;87.22;96375.59;10412656;28;20407;-58
2022/01/10 02:37:35;;;;;;;30.98;21.35;;;;;;;1.84;87.43;96368.38;10410304;28;20527;-58
2022/01/10 02:42:34;;;;;;;26.88;13.93;;;;;;;1.88;87.60;96377.81;10407148;28;20120;-59
2022/01/10 02:47:33;;;;;;;20.30;11.20;;;;;;;1.84;88.12;96372.66;10413374;28;20500;-59
2022/01/10 02:52:34;;;;;;;25.38;14.82;;;;;;;1.75;88.06;96378.50;10411647;28;20036;-59
2022/01/10 02:57:34;;;;;;;18.83;9.35;;;;;;;1.66;88.47;96378.41;10414400;28;20072;-59
2022/01/10 03:02:34;;;;;;;65.93;33.22;;;;;;;1.56;88.77;96372.34;10415114;28;20788;-58
2022/01/10 03:07:33;;;;;;;49.47;25.00;;;;;;;1.54;88.74;96379.97;10414189;28;20492;-58
2022/01/10 03:12:32;;;;;;;22.02;10.85;;;;;;;1.44;89.65;96387.53;10396763;28;20079;-58
2022/01/10 03:17:31;;;;;;;44.20;21.77;;;;;;;1.31;89.92;96384.78;10373807;28;20495;-58
2022/01/10 03:22:31;;;;;;;31.58;15.35;;;;;;;1.38;89.50;96367.00;10372384;28;20048;-58
2022/01/10 03:27:30;;;;;;;29.77;14.98;;;;;;;1.56;89.65;96380.00;10372357;28;20507;-58
2022/01/10 03:32:29;;;;;;;22.05;10.75;;;;;;;1.60;89.83;96386.88;10372583;28;20057;-59
2022/01/10 03:37:28;;;;;;;20.02;9.80;;;;;;;1.45;90.08;96379.84;10372354;28;20048;-58
2022/01/10 03:42:27;;;;;;;22.35;11.65;;;;;;;1.40;90.34;96385.75;10394613;28;20039;-58
2022/01/10 03:47:26;;;;;;;21.13;9.23;;;;;;;1.30;90.66;96388.19;10412125;28;20112;-58
2022/01/10 03:52:27;;;;;;;15.68;7.60;;;;;;;1.23;90.94;96388.13;10412787;28;20056;-58
2022/01/10 03:57:26;;;;;;;15.77;7.97;;;;;;;1.15;91.40;96392.25;10413363;28;20064;-59
2022/01/10 04:02:28;;;;;;;25.17;12.77;;;;;;;1.04;91.93;96407.44;10413099;28;20044;-58
2022/01/10 04:07:27;;;;;;;25.00;12.52;;;;;;;1.07;91.80;96387.03;10413492;28;20075;-58
2022/01/10 04:12:26;;;;;;;44.40;23.70;;;;;;;1.26;91.56;96395.81;10388016;28;20033;-58
2022/01/10 04:17:25;;;;;;;22.33;13.30;;;;;;;1.19;91.87;96407.63;10372180;28;20076;-58
2022/01/10 04:22:24;;;;;;;21.48;12.02;;;;;;;1.30;91.54;96408.66;10371346;28;20040;-58
2022/01/10 04:27:23;;;;;;;25.67;15.60;;;;;;;1.44;91.51;96413.09;10371887;28;20124;-58
2022/01/10 04:32:22;;;;;;;23.00;13.55;;;;;;;1.44;91.38;96423.31;10371955;28;20788;-58
2022/01/10 04:37:21;;;;;;;16.02;8.30;;;;;;;1.17;91.60;96419.53;10373729;28;20399;-58
2022/01/10 04:42:20;;;;;;;21.58;12.02;;;;;;;1.08;92.26;96442.38;10393638;28;20106;-58
2022/01/10 04:47:19;;;;;;;25.65;13.30;;;;;;;0.99;92.79;96439.69;10419902;28;20556;-59
2022/01/10 04:52:18;;;;;;;16.35;7.63;;;;;;;0.92;92.91;96453.22;10419280;28;20024;-58
2022/01/10 04:57:17;;;;;;;19.55;11.68;;;;;;;0.93;93.15;96454.94;10418105;28;20456;-58
2022/01/10 05:02:16;;;;;;;21.67;11.98;;;;;;;1.11;92.90;96462.88;10418673;28;20095;-58
2022/01/10 05:07:15;;;;;;;22.85;11.98;;;;;;;1.25;92.34;96442.66;10419282;28;20040;-58
2022/01/10 05:12:14;;;;;;;;;;;;;;;1.56;92.44;96453.28;10418024;28;20064;-59
2022/01/10 05:17:13;;;;;;;21.08;11.25;;;;;;;1.65;91.77;96445.75;10418677;28;19990;-58
2022/01/10 05:22:12;;;;;;;22.80;12.02;;;;;;;1.84;92.01;96455.34;10418802;28;20025;-58
2022/01/10 05:27:11;;;;;;;21.70;12.27;;;;;;;1.83;91.56;96460.44;10417430;28;20480;-59
2022/01/10 05:32:10;;;;;;;23.10;11.82;;;;;;;1.84;91.16;96474.97;10417333;28;20071;-59
2022/01/10 05:37:09;;;;;;;37.03;21.13;;;;;;;1.81;91.21;96464.66;10410788;28;20041;-58
2022/01/10 05:42:08;;;;;;;30.60;17.42;;;;;;;1.81;91.19;96467.22;10399044;28;20017;-58
2022/01/10 05:47:07;;;;;;;42.58;24.75;;;;;;;1.72;91.21;96476.53;10415923;28;20068;-58
2022/01/10 05:52:06;;;;;;;19.05;10.70;;;;;;;1.39;91.26;96488.81;10417655;28;20024;-58
2022/01/10 05:57:06;;;;;;;28.73;17.50;;;;;;;1.19;91.68;96484.28;10417008;28;20059;-58
2022/01/10 06:02:04;;;;;;;28.63;16.23;;;;;;;1.15;92.02;96477.41;10409555;28;20152;-58
2022/01/10 06:07:03;;;;;;;24.52;11.35;;;;;;;1.18;91.94;96482.59;10412610;28;20037;-59
2022/01/10 06:12:03;;;;;;;20.80;11.70;;;;;;;1.19;92.22;96509.00;10412749;28;20428;-58
2022/01/10 06:17:02;;;;;;;;;;;;;;;1.07;92.10;96514.75;10416947;28;20064;-58
2022/01/10 06:22:01;;;;;;;17.30;9.02;;;;;;;1.05;92.61;96506.22;10415627;28;20005;-58
2022/01/10 06:27:00;;;;;;;19.88;9.45;;;;;;;0.99;92.68;96508.66;10415617;28;20033;-59
2022/01/10 06:31:59;;;;;;;25.23;12.65;;;;;;;0.75;92.88;96471.66;10415824;28;20040;-58
2022/01/10 06:36:59;;;;;;;24.90;13.23;;;;;;;0.99;93.13;96524.88;10413028;28;20522;-59
2022/01/10 06:41:58;;;;;;;24.67;11.68;;;;;;;1.16;92.68;96525.13;10414214;28;20068;-58
2022/01/10 06:46:57;;;;;;;28.50;15.57;;;;;;;1.26;92.83;96532.09;10412823;28;20064;-58
2022/01/10 06:51:56;;;;;;;43.85;26.17;;;;;;;1.30;92.72;96533.88;10414032;28;20067;-58
2022/01/10 06:56:58;;;;;;;20.38;11.30;;;;;;;1.28;92.81;96525.31;10415552;28;20056;-58
2022/01/10 07:01:58;;;;;;;21.73;11.20;;;;;;;1.42;92.56;96537.47;10411855;28;20067;-58
2022/01/10 07:06:57;;;;;;;20.20;10.38;;;;;;;1.42;92.57;96552.78;10379154;28;20080;-59
2022/01/10 07:11:56;;;;;;;29.42;15.93;;;;;;;1.35;92.73;96549.28;10403692;28;20059;-58
2022/01/10 07:16:55;;;;;;;23.30;12.05;;;;;;;1.37;92.80;96546.75;10414368;28;20028;-58
2022/01/10 07:21:54;;;;;;;51.45;32.65;;;;;;;1.58;92.55;96570.09;10379064;28;20084;-58
2022/01/10 07:26:53;;;;;;;44.67;28.25;;;;;;;1.76;92.60;96559.25;10381342;28;20032;-59
2022/01/10 07:31:52;;;;;;;25.73;13.18;;;;;;;1.93;92.34;96562.06;10415223;28;20087;-58
2022/01/10 07:36:51;;;;;;;24.13;11.93;;;;;;;2.04;91.46;96559.63;10407734;28;20112;-58
2022/01/10 07:41:50;;;;;;;24.13;15.15;;;;;;;1.90;91.99;96569.66;10388669;28;20036;-58
2022/01/10 07:46:49;;;;;;;20.35;11.18;;;;;;;1.79;91.59;96568.69;10384463;28;20036;-58
2022/01/10 07:51:48;;;;;;;24.45;12.98;;;;;;;1.87;91.90;96560.25;10413646;28;20466;-59
2022/01/10 07:56:47;;;;;;;20.73;11.77;;;;;;;2.01;91.93;96565.56;10413808;28;20064;-58
2022/01/10 08:01:47;;;;;;;22.55;12.00;;;;;;;2.12;92.03;96556.34;10414274;28;20116;-58
2022/01/10 08:06:46;;;;;;;20.58;11.98;;;;;;;2.14;91.35;96571.72;10402326;28;20063;-58
2022/01/10 08:11:46;;;;;;;27.20;14.93;;;;;;;2.10;91.73;96575.91;10401264;28;20090;-58
2022/01/10 08:16:45;;;;;;;20.58;11.45;;;;;;;2.19;91.54;96577.75;10381161;28;20080;-58
2022/01/10 08:21:44;;;;;;;17.33;8.90;;;;;;;2.34;91.19;96580.47;10408957;28;20028;-58
2022/01/10 08:26:43;;;;;;;18.67;10.30;;;;;;;2.42;91.34;96572.91;10421038;28;20043;-58
2022/01/10 08:31:42;;;;;;;16.50;8.82;;;;;;;2.57;90.34;96578.19;10415674;28;20465;-59
2022/01/10 08:36:42;;;;;;;15.23;10.25;;;;;;;2.72;90.15;96586.88;10419567;28;20499;-58
2022/01/10 08:41:41;;;;;;;24.13;16.88;;;;;;;2.83;89.91;96575.06;10420764;28;20064;-58
2022/01/10 08:46:40;;;;;;;15.65;9.30;;;;;;;2.95;90.03;96579.44;10419354;28;20028;-58
2022/01/10 08:51:40;;;;;;;13.10;7.85;;;;;;;2.99;89.37;96588.88;10419204;28;20059;-58
2022/01/10 08:56:39;;;;;;;19.48;13.38;;;;;;;2.96;89.79;96587.16;10420035;28;20075;-58
2022/01/10 09:01:38;;;;;;;13.27;9.70;;;;;;;2.90;88.92;96592.22;10413138;28;20060;-59
2022/01/10 09:06:37;;;;;;;19.45;12.40;;;;;;;2.75;88.82;96579.25;10419498;28;20036;-58
2022/01/10 09:11:36;;;;;;;83.68;52.70;;;;;;;2.79;89.07;96597.25;10419842;28;20032;-58
2022/01/10 09:16:35;;;;;;;;;;;;;;;2.57;88.77;96596.13;10419225;28;20103;-58
2022/01/10 09:21:36;;;;;;;14.93;9.70;;;;;;;2.32;89.07;96596.66;10418763;28;19970;-58
2022/01/10 09:26:35;;;;;;;37.47;25.10;;;;;;;2.05;89.39;96603.16;10417813;28;20079;-58
2022/01/10 09:31:34;;;;;;;25.50;17.00;;;;;;;2.01;89.16;96578.34;10388896;28;20080;-58
2022/01/10 09:36:34;;;;;;;22.60;14.38;;;;;;;2.21;89.08;96598.22;10402391;28;20064;-58
2022/01/10 09:41:33;;;;;;;34.60;22.50;;;;;;;2.10;89.50;96606.63;10418426;28;20079;-58
2022/01/10 09:46:33;;;;;;;18.85;13.10;;;;;;;2.14;89.14;96604.97;10418529;28;20028;-59
2022/01/10 09:51:33;;;;;;;16.33;10.65;;;;;;;2.07;89.52;96606.59;10417928;28;20060;-59
2022/01/10 09:56:32;;;;;;;31.42;20.60;;;;;;;2.21;88.95;96606.78;10417509;28;20063;-59
2022/01/10 10:01:32;;;;;;;;;;;;;;;2.29;89.23;96612.00;10402719;28;20064;-58
2022/01/10 10:06:33;;;;;;;39.43;23.03;;;;;;;2.24;88.97;96598.28;10405742;28;19975;-58
2022/01/10 10:11:43;;;;;;;44.92;25.98;;;;;;;2.29;88.79;96606.88;10387892;28;20566;-59
2022/01/10 10:16:48;;;;;;;30.15;19.73;;;;;;;2.27;89.27;96613.66;10382742;28;20064;-59
2022/01/10 10:21:49;;;;;;;27.48;17.90;;;;;;;2.13;89.25;96610.94;10391460;28;20103;-58
2022/01/10 10:26:48;;;;;;;23.75;13.57;;;;;;;2.07;89.08;96611.72;10389883;28;20076;-60
2022/01/10 10:31:53;;;;;;;22.52;12.68;;;;;;;2.10;89.13;96623.69;10390176;28;20127;-58
2022/01/10 10:37:10;;;;;;;29.50;20.40;;;;;;;1.98;88.89;96620.97;10402916;28;20119;-58
2022/01/10 10:42:18;;;;;;;35.75;24.30;;;;;;;2.03;89.19;96629.56;10408622;28;20115;-60
2022/01/10 10:47:17;;;;;;;62.00;40.38;;;;;;;2.20;89.26;96622.97;10393775;28;20127;-60
2022/01/10 10:52:16;;;;;;;;;;;;;;;2.09;89.33;96627.94;10403534;28;20150;-58
2022/01/10 10:57:17;;;;;;;38.85;19.58;;;;;;;1.98;89.33;96626.94;10402791;28;19966;-58
2022/01/10 11:02:18;;;;;;;23.60;13.82;;;;;;;1.88;89.75;96636.19;10409738;28;20151;-58
2022/01/10 11:07:21;;;;;;;42.58;26.55;;;;;;;1.97;89.50;96635.44;10408469;28;21054;-58
2022/01/10 11:12:22;;;;;;;23.70;11.52;;;;;;;1.97;89.79;96632.88;10401403;28;20111;-58
2022/01/10 11:17:22;;;;;;;33.20;21.60;;;;;;;2.04;90.40;96631.25;10408164;28;20131;-58
2022/01/10 11:22:22;;;;;;;37.25;22.55;;;;;;;2.10;90.26;96642.44;10405911;28;20115;-58
2022/01/10 11:27:43;;;;;;;29.95;19.15;;;;;;;2.17;89.98;96644.25;10397738;28;20132;-58
2022/01/10 11:32:51;;;;;;;19.95;13.07;;;;;;;2.27;90.18;96649.50;10395530;28;20136;-58
2022/01/10 11:37:50;;;;;;;37.72;21.13;;;;;;;2.49;90.54;96654.09;10404057;28;20140;-58
2022/01/10 11:42:57;;;;;;;15.13;9.88;;;;;;;2.39;89.48;96657.34;10405830;28;20036;-58
2022/01/10 11:48:04;;;;;;;16.00;9.85;;;;;;;2.37;89.23;96653.91;10412313;28;20116;-58
2022/01/10 11:53:03;;;;;;;13.00;9.27;;;;;;;2.28;89.58;96671.72;10415669;28;20112;-58
2022/01/10 11:58:13;;;;;;;;;;;;;;;2.24;89.23;96669.94;10414776;28;20635;-58
2022/01/10 12:03:12;;;;;;;21.95;15.40;;;;;;;2.12;89.07;96656.13;10415298;28;20042;-58
2022/01/10 12:08:11;;;;;;;12.15;9.95;;;;;;;2.30;89.51;96676.03;10414096;28;20131;-58
2022/01/10 12:13:12;;;;;;;7.45;4.75;;;;;;;2.35;89.31;96670.97;10414548;28;20111;-58
2022/01/10 12:18:12;;;;;;;30.55;23.17;;;;;;;2.33;88.93;96680.31;10414594;28;20107;-58
2022/01/10 12:23:11;;;;;;;11.27;7.90;;;;;;;2.41;89.50;96668.47;10413986;28;20115;-58
2022/01/10 12:28:12;;;;;;;8.73;6.32;;;;;;;2.23;88.72;96675.88;10401561;28;20039;-58
2022/01/10 12:33:11;;;;;;;20.60;13.45;;;;;;;2.28;88.83;96679.41;10414091;28;20123;-58
2022/01/10 12:38:11;;;;;;;11.93;7.47;;;;;;;2.14;88.70;96684.31;10387909;28;20028;-58
2022/01/10 12:43:10;;;;;;;19.15;14.35;;;;;;;2.04;89.13;96680.72;10391246;28;20547;-58
2022/01/10 12:48:11;;;;;;;14.18;8.90;;;;;;;2.02;89.27;96674.75;10403650;28;20025;-58
2022/01/10 12:53:10;;;;;;;15.27;9.85;;;;;;;2.10;89.45;96688.50;10410288;28;20483;-58
2022/01/10 12:58:09;;;;;;;35.83;18.40;;;;;;;2.03;89.44;96681.59;10392436;28;20369;-57
2022/01/10 13:03:08;;;;;;;20.70;14.40;;;;;;;2.02;90.09;96690.13;10418450;28;20068;-58
2022/01/10 13:08:07;;;;;;;11.27;7.15;;;;;;;1.78;90.07;96700.81;10418861;28;20090;-57
2022/01/10 13:13:09;;;;;;;16.50;11.45;;;;;;;1.83;90.50;96704.28;10419735;28;20494;-58
2022/01/10 13:18:11;;;;;;;13.52;8.95;;;;;;;1.86;90.50;96713.75;10418762;28;20079;-58
2022/01/10 13:23:12;;;;;;;19.63;15.80;;;;;;;1.75;90.09;96718.66;10405487;28;20064;-60
2022/01/10 13:28:12;;;;;;;10.70;7.25;;;;;;;1.76;90.79;96728.03;10390841;28;20466;-57
2022/01/10 13:33:11;;;;;;;20.58;14.80;;;;;;;1.62;90.62;96735.50;10404650;28;20742;-58
2022/01/10 13:38:14;;;;;;;11.85;7.32;;;;;;;1.62;90.96;96739.72;10408122;28;20733;-57
2022/01/10 13:43:24;;;;;;;18.50;13.80;;;;;;;1.58;91.05;96750.78;10395084;28;20495;-57
2022/01/10 13:48:25;;;;;;;12.13;7.20;;;;;;;1.53;91.19;96758.34;10409599;28;20695;-57
2022/01/10 13:53:48;;;;;;;14.10;9.35;;;;;;;1.54;91.10;96772.84;10376432;28;20079;-57
2022/01/10 13:58:49;;;;;;;26.38;20.88;;;;;;;1.50;90.96;96771.91;10408516;28;20079;-57
2022/01/10 14:03:50;;;;;;;28.42;22.55;;;;;;;1.44;91.61;96781.19;10380901;28;20084;-58
2022/01/10 14:09:05;;;;;;;19.45;12.18;;;;;;;1.41;91.16;96788.78;10375673;28;20080;-58
2022/01/10 14:14:08;;;;;;;23.52;14.93;;;;;;;1.37;91.35;96789.56;10375899;28;20076;-58
2022/01/10 14:19:09;;;;;;;11.18;7.22;;;;;;;1.24;91.36;96796.97;10387872;28;20060;-58
2022/01/10 14:24:09;;;;;;;16.55;11.55;;;;;;;1.21;90.89;96809.69;10382558;28;20072;-58
2022/01/10 14:29:07;;;;;;;12.88;8.63;;;;;;;1.27;91.26;96807.28;10375725;28;20064;-58
2022/01/10 14:34:07;;;;;;;12.40;8.00;;;;;;;1.08;91.47;96812.81;10375737;28;20047;-58
2022/01/10 14:39:06;;;;;;;;;;;;;;;1.15;91.60;96827.44;10375657;28;20072;-58
2022/01/10 14:44:05;;;;;;;20.17;13.30;;;;;;;1.03;91.69;96819.53;10374579;28;19970;-58
2022/01/10 14:49:04;;;;;;;;;;;;;;;1.21;91.63;96832.69;10390217;28;20083;-58
2022/01/10 14:54:03;;;;;;;14.70;9.32;;;;;;;1.30;91.73;96825.22;10413841;28;19947;-58
2022/01/10 14:59:05;;;;;;;12.02;8.05;;;;;;;1.52;91.61;96843.53;10413017;28;20103;-58
2022/01/10 15:04:04;;;;;;;18.10;12.85;;;;;;;1.64;91.39;96848.88;10414935;28;20075;-58
2022/01/10 15:09:03;;;;;;;11.52;7.30;;;;;;;1.61;91.53;96855.66;10414933;28;20040;-58
2022/01/10 15:14:07;;;;;;;11.50;8.32;;;;;;;1.58;91.79;96866.69;10414634;28;20052;-58
2022/01/10 15:19:06;;;;;;;14.30;8.02;;;;;;;1.60;91.22;96874.38;10393101;28;20077;-58
2022/01/10 15:24:06;;;;;;;14.05;11.27;;;;;;;1.62;91.43;96878.72;10373637;28;20162;-58
2022/01/10 15:29:06;;;;;;;16.75;11.55;;;;;;;1.35;91.47;96893.47;10373752;28;20816;-58
2022/01/10 15:34:06;;;;;;;12.98;8.90;;;;;;;1.23;91.45;96878.75;10373195;28;20484;-58
2022/01/10 15:39:05;;;;;;;12.75;8.07;;;;;;;1.30;91.81;96907.00;10373271;28;20697;-58
2022/01/10 15:44:04;;;;;;;9.48;6.47;;;;;;;1.29;91.43;96915.53;10373418;28;20468;-58
2022/01/10 15:49:03;;;;;;;18.98;12.95;;;;;;;1.32;91.55;96917.28;10406587;28;20851;-58
2022/01/10 15:54:02;;;;;;;22.35;14.27;;;;;;;1.22;91.85;96928.13;10414347;28;20555;-58
2022/01/10 15:59:01;;;;;;;10.40;6.22;;;;;;;1.27;91.74;96941.84;10414013;28;20068;-58
2022/01/10 16:04:00;;;;;;;;;;;;;;;1.28;91.72;96944.44;10403803;28;20819;-58
2022/01/10 16:09:00;;;;;;;17.17;11.27;;;;;;;1.26;91.49;96929.91;10399299;28;20755;-58
2022/01/10 16:13:58;;;;;;;15.88;10.68;;;;;;;1.31;91.74;96970.06;10398698;28;20145;-58
2022/01/10 16:18:58;;;;;;;14.52;9.82;;;;;;;1.28;91.59;96971.72;10405600;28;20127;-58
2022/01/10 16:23:57;;;;;;;14.27;9.30;;;;;;;1.32;91.50;96982.03;10407018;28;20119;-58
2022/01/10 16:28:56;;;;;;;20.65;12.20;;;;;;;1.35;91.51;96991.47;10407256;28;20131;-58
2022/01/10 16:33:56;;;;;;;20.33;11.50;;;;;;;1.14;91.40;96958.63;10399774;28;20147;-58
2022/01/10 16:38:55;;;;;;;28.25;15.88;;;;;;;1.25;91.33;97009.97;10412238;28;20147;-58
2022/01/10 16:43:54;;;;;;;12.10;8.02;;;;;;;1.18;91.49;97008.97;10390681;28;20083;-58
2022/01/10 16:48:53;;;;;;;;;;;;;;;1.24;91.86;97009.09;10406001;28;20139;-58
2022/01/10 16:53:53;;;;;;;38.72;22.23;;;;;;;1.31;91.83;97021.19;10399154;28;20016;-59
2022/01/10 16:58:52;;;;;;;18.88;10.85;;;;;;;1.35;91.56;97032.34;10399870;28;20659;-59
2022/01/10 17:03:52;;;;;;;26.95;16.92;;;;;;;1.25;91.89;97032.97;10393092;28;20033;-59
2022/01/10 17:08:51;;;;;;;30.40;18.40;;;;;;;1.20;91.88;97016.66;10410808;28;20148;-59
2022/01/10 17:13:50;;;;;;;32.60;15.55;;;;;;;1.32;91.88;97048.50;10410633;28;20111;-58
2022/01/10 17:18:49;;;;;;;27.23;15.88;;;;;;;1.36;91.88;97056.22;10406283;28;20052;-59
2022/01/10 17:23:48;;;;;;;23.50;13.43;;;;;;;1.42;91.67;97062.34;10403727;28;20036;-59
2022/01/10 17:28:47;;;;;;;17.48;11.20;;;;;;;1.48;91.73;97070.19;10409961;28;20838;-59
2022/01/10 17:33:46;;;;;;;10.35;6.90;;;;;;;1.54;91.85;97074.56;10404228;28;20556;-58
2022/01/10 17:38:45;;;;;;;12.07;7.97;;;;;;;1.56;91.82;97078.00;10410570;28;20049;-59
2022/01/10 17:43:45;;;;;;;16.30;10.05;;;;;;;1.57;91.62;97095.06;10411289;28;20044;-58
2022/01/10 17:48:44;;;;;;;18.25;11.63;;;;;;;1.62;92.05;97092.63;10411067;28;20127;-58
2022/01/10 17:53:43;;;;;;;11.02;7.05;;;;;;;1.63;92.16;97105.47;10403309;28;20055;-59
2022/01/10 17:58:42;;;;;;;9.02;6.72;;;;;;;1.67;91.96;97103.81;10411398;28;20128;-58
2022/01/10 18:03:41;;;;;;;16.77;10.60;;;;;;;1.67;91.99;97106.38;10391153;28;20033;-58
2022/01/10 18:08:40;;;;;;;23.27;14.65;;;;;;;1.53;91.88;97111.19;10395331;28;20043;-58
2022/01/10 18:13:39;;;;;;;20.00;13.45;;;;;;;1.49;92.25;97117.06;10404539;28;20032;-58
2022/01/10 18:18:38;;;;;;;32.67;20.52;;;;;;;1.48;92.01;97120.41;10387848;28;20044;-58
2022/01/10 18:23:37;;;;;;;14.20;9.85;;;;;;;1.46;91.84;97119.53;10409778;28;20040;-59
2022/01/10 18:28:36;;;;;;;12.60;9.38;;;;;;;1.49;92.14;97135.81;10394385;28;20020;-58
2022/01/10 18:33:36;;;;;;;14.80;10.82;;;;;;;1.41;92.22;97139.88;10403880;28;20147;-58
2022/01/10 18:38:35;;;;;;;18.67;12.65;;;;;;;1.44;92.03;97147.63;10407764;28;20116;-58
2022/01/10 18:43:36;;;;;;;18.63;14.15;;;;;;;1.33;91.84;97128.59;10400884;28;20037;-58
2022/01/10 18:48:35;;;;;;;23.98;16.35;;;;;;;1.40;92.06;97155.19;10392555;28;20147;-58
2022/01/10 18:53:34;;;;;;;31.27;21.33;;;;;;;1.38;92.12;97165.34;10409340;28;20056;-58
2022/01/10 18:58:33;;;;;;;59.47;36.03;;;;;;;1.36;92.19;97171.25;10402885;28;20036;-58
2022/01/10 19:03:32;;;;;;;53.78;35.30;;;;;;;1.30;92.46;97172.84;10391615;28;20064;-58
2022/01/10 19:08:32;;;;;;;30.65;20.83;;;;;;;1.31;92.33;97179.66;10400430;28;20112;-58
2022/01/10 19:13:31;;;;;;;31.05;20.85;;;;;;;1.36;92.33;97189.16;10392994;28;20123;-58
2022/01/10 19:18:30;;;;;;;35.33;23.67;;;;;;;1.40;92.40;97188.41;10401306;28;20039;-58
2022/01/10 19:23:29;;;;;;;27.50;19.30;;;;;;;1.44;92.64;97195.34;10400438;28;20599;-58
2022/01/10 19:28:28;;;;;;;29.85;20.15;;;;;;;1.45;92.55;97195.34;10406593;28;20614;-58
2022/01/10 19:33:27;;;;;;;36.88;24.75;;;;;;;1.54;92.41;97202.41;10407282;28;20127;-58
2022/01/10 19:38:26;;;;;;;36.25;23.75;;;;;;;1.49;92.03;97204.84;10391546;28;20040;-58
2022/01/10 19:43:26;;;;;;;26.67;17.88;;;;;;;1.39;92.16;97194.31;10406357;28;20105;-58
2022/01/10 19:48:24;;;;;;;21.98;14.98;;;;;;;1.54;92.15;97212.63;10407409;28;20120;-58
2022/01/10 19:53:25;;;;;;;29.52;19.27;;;;;;;1.53;91.74;97221.16;10406519;28;20036;-58
2022/01/10 19:58:24;;;;;;;22.70;14.48;;;;;;;1.21;91.62;97182.81;10406209;28;20151;-58
2022/01/10 20:03:23;;;;;;;21.25;14.60;;;;;;;1.30;92.07;97225.66;10402823;28;20119;-58
2022/01/10 20:08:26;;;;;;;20.40;12.48;;;;;;;1.32;91.79;97222.31;10405882;28;20143;-58
2022/01/10 20:13:28;;;;;;;26.88;18.45;;;;;;;1.37;91.84;97226.69;10414198;28;20206;-58
2022/01/10 20:18:27;;;;;;;11.40;8.02;;;;;;;1.43;91.70;97239.59;10403675;28;20083;-58
2022/01/10 20:23:26;;;;;;;23.63;14.07;;;;;;;1.40;91.92;97225.06;10409793;28;20044;-58
2022/01/10 20:28:26;;;;;;;22.25;14.68;;;;;;;1.48;91.92;97249.16;10414564;28;20112;-58
2022/01/10 20:33:24;;;;;;;;;;;;;;;1.39;91.64;97253.13;10411298;28;20133;-58
2022/01/10 20:38:24;;;;;;;21.23;14.90;;;;;;;1.39;91.93;97259.13;10405237;28;19982;-58
2022/01/10 20:43:25;;;;;;;25.15;14.15;;;;;;;1.45;92.12;97258.41;10399124;28;20155;-58
2022/01/10 20:48:27;;;;;;;15.30;9.32;;;;;;;1.44;91.81;97266.91;10411851;28;20541;-58
2022/01/10 20:53:31;;;;;;;16.50;10.90;;;;;;;1.43;91.94;97266.03;10412766;28;20140;-58
2022/01/10 20:58:30;;;;;;;15.80;10.38;;;;;;;1.49;91.62;97270.47;10413010;28;20083;-58
2022/01/10 21:03:29;;;;;;;19.80;12.32;;;;;;;1.53;91.64;97282.50;10401197;28;20107;-58
2022/01/10 21:08:27;;;;;;;17.63;11.43;;;;;;;1.54;91.97;97274.00;10408451;28;20052;-58
2022/01/10 21:13:27;;;;;;;17.63;11.52;;;;;;;1.55;92.04;97278.28;10412821;28;20492;-58
2022/01/10 21:18:26;;;;;;;20.23;12.93;;;;;;;1.54;91.90;97281.69;10398734;28;20551;-58
2022/01/10 21:23:26;;;;;;;19.70;13.00;;;;;;;1.56;91.55;97292.81;10401138;28;20569;-58
2022/01/10 21:28:26;;;;;;;19.35;12.05;;;;;;;1.55;91.53;97296.19;10413137;28;20560;-58
2022/01/10 21:33:25;;;;;;;20.25;12.73;;;;;;;1.57;91.78;97288.56;10412746;28;20464;-58
2022/01/10 21:38:24;;;;;;;13.00;8.48;;;;;;;1.54;91.60;97294.47;10410601;28;20815;-58
2022/01/10 21:43:23;;;;;;;20.38;14.07;;;;;;;1.46;91.56;97296.81;10409125;28;20127;-58
2022/01/10 21:48:22;;;;;;;35.80;16.27;;;;;;;1.37;91.15;97313.59;10410183;28;20570;-58
2022/01/10 21:53:21;;;;;;;48.33;23.15;;;;;;;1.15;91.32;97315.53;10411950;28;20119;-58
2022/01/10 21:58:20;;;;;;;24.55;14.10;;;;;;;0.94;91.45;97320.00;10399023;28;20671;-58
2022/01/10 22:03:19;;;;;;;17.92;10.18;;;;;;;0.65;91.69;97328.53;10401715;28;20119;-58
2022/01/10 22:08:19;;;;;;;14.80;8.68;;;;;;;0.47;91.70;97333.06;10404917;28;20124;-58
2022/01/10 22:13:19;;;;;;;9.20;5.80;;;;;;;0.20;91.74;97339.03;10403590;28;20139;-58
2022/01/10 22:18:18;;;;;;;12.00;7.82;;;;;;;0.04;92.24;97342.75;10411274;28;20124;-58
2022/01/10 22:23:18;;;;;;;11.55;6.85;;;;;;;-0.04;92.42;97343.28;10410221;28;20138;-58
2022/01/10 22:28:17;;;;;;;7.32;4.38;;;;;;;-0.15;92.82;97360.81;10405457;28;20139;-58
2022/01/10 22:33:16;;;;;;;7.53;5.45;;;;;;;-0.30;92.92;97357.69;10395055;28;20119;-58
2022/01/10 22:38:15;;;;;;;8.98;5.57;;;;;;;-0.34;93.13;97355.88;10409325;28;20044;-58
2022/01/10 22:43:14;;;;;;;8.32;5.13;;;;;;;-0.31;93.31;97358.53;10408531;28;20028;-58
2022/01/10 22:48:13;;;;;;;7.65;4.13;;;;;;;-0.43;93.31;97372.56;10410094;28;20395;-58
2022/01/10 22:53:12;;;;;;;10.30;6.47;;;;;;;-0.41;94.03;97368.41;10409537;28;20111;-58
2022/01/10 22:58:11;;;;;;;7.63;3.90;;;;;;;-0.31;93.88;97376.38;10392213;28;20123;-58
2022/01/10 23:03:11;;;;;;;7.53;3.63;;;;;;;-0.18;93.60;97370.91;10399380;28;20131;-58
2022/01/10 23:08:10;;;;;;;7.68;3.65;;;;;;;0.00;93.54;97381.72;10391185;28;20136;-58
2022/01/10 23:13:09;;;;;;;11.35;4.22;;;;;;;0.11;93.38;97379.53;10385310;28;20115;-58
2022/01/10 23:18:08;;;;;;;10.40;4.05;;;;;;;0.27;93.16;97384.34;10406597;28;20036;-58
2022/01/10 23:23:08;;;;;;;9.27;5.30;;;;;;;0.38;93.10;97384.69;10404922;28;20036;-58
2022/01/10 23:28:07;;;;;;;16.45;8.50;;;;;;;0.35;92.86;97392.25;10398236;28;20143;-58